createdAt,value
2017-10-03T00:02:09.967Z,12.73
2017-10-03T00:04:41.530Z,12.65
2017-10-03T00:07:12.224Z,12.59
2017-10-03T00:09:54.151Z,12.54
2017-10-03T00:12:28.039Z,12.71
2017-10-03T00:15:02.895Z,12.62
2017-10-03T00:17:34.073Z,12.60
2017-10-03T00:20:08.769Z,12.60
2017-10-03T00:22:41.225Z,12.47
2017-10-03T00:25:13.226Z,12.50
2017-10-03T00:27:45.665Z,12.46
2017-10-03T00:30:17.857Z,12.39
2017-10-03T00:32:51.342Z,12.44
2017-10-03T00:35:22.581Z,12.46
2017-10-03T00:37:53.577Z,12.39
2017-10-03T00:40:24.828Z,12.36
2017-10-03T00:42:55.892Z,12.30
2017-10-03T00:45:27.008Z,12.37
2017-10-03T00:50:30.389Z,12.52
2017-10-03T00:53:03.759Z,12.46
2017-10-03T00:55:34.918Z,12.54
2017-10-03T00:58:06.363Z,12.51
2017-10-03T01:00:37.503Z,12.55
2017-10-03T01:03:08.537Z,12.53
2017-10-03T01:05:39.977Z,12.49
2017-10-03T01:08:11.101Z,12.47
2017-10-03T01:10:42.801Z,12.53
2017-10-03T01:13:14.479Z,12.53
2017-10-03T01:15:48.246Z,12.49
2017-10-03T01:18:20.942Z,12.49
2017-10-03T01:20:55.365Z,12.44
2017-10-03T01:23:27.032Z,12.51
2017-10-03T01:25:58.748Z,12.50
2017-10-03T01:28:29.901Z,12.40
2017-10-03T01:31:01.629Z,12.41
2017-10-03T01:33:32.496Z,12.40
2017-10-03T01:36:03.773Z,12.43
2017-10-03T01:38:35.882Z,12.30
2017-10-03T01:41:07.142Z,12.24
2017-10-03T01:43:39.134Z,12.22
2017-10-03T01:46:10.300Z,12.25
2017-10-03T01:48:41.545Z,12.27
2017-10-03T01:51:13.215Z,12.31
2017-10-03T01:53:46.005Z,12.38
2017-10-03T01:56:18.323Z,12.35
2017-10-03T01:58:52.064Z,12.24
2017-10-03T02:01:23.550Z,12.21
2017-10-03T02:03:54.903Z,12.24
2017-10-03T02:06:26.379Z,12.29
2017-10-03T02:08:57.599Z,12.32
2017-10-03T02:11:29.145Z,12.31
2017-10-03T02:14:00.235Z,12.26
2017-10-03T02:16:31.433Z,12.17
2017-10-03T02:19:02.992Z,12.18
2017-10-03T02:21:33.617Z,12.21
2017-10-03T02:24:04.933Z,12.18
2017-10-03T02:26:36.545Z,12.18
2017-10-03T02:29:08.028Z,12.20
2017-10-03T02:31:40.358Z,12.08
2017-10-03T02:34:11.389Z,12.11
2017-10-03T02:36:42.308Z,12.16
2017-10-03T02:39:13.740Z,12.16
2017-10-03T02:41:44.557Z,12.13
2017-10-03T02:44:18.846Z,12.04
2017-10-03T02:46:51.820Z,11.98
2017-10-03T02:49:23.029Z,11.98
2017-10-03T02:51:55.992Z,11.94
2017-10-03T02:54:27.149Z,11.91
2017-10-03T02:56:58.202Z,11.93
2017-10-03T02:59:29.833Z,11.88
2017-10-03T03:02:00.799Z,11.90
2017-10-03T03:04:35.722Z,11.92
2017-10-03T03:07:07.365Z,11.98
2017-10-03T03:09:38.248Z,11.97
2017-10-03T03:12:09.209Z,11.99
2017-10-03T03:14:40.624Z,12.04
2017-10-03T03:17:12.047Z,11.98
2017-10-03T03:19:43.362Z,12.06
2017-10-03T03:22:14.812Z,12.03
2017-10-03T03:24:45.664Z,12.06
2017-10-03T03:27:16.924Z,12.05
2017-10-03T03:29:58.450Z,12.02
2017-10-03T03:32:29.659Z,12.04
2017-10-03T03:35:01.354Z,12.04
2017-10-03T03:37:32.497Z,12.03
2017-10-03T03:40:03.747Z,12.00
2017-10-03T03:42:35.210Z,12.05
2017-10-03T03:45:05.810Z,12.06
2017-10-03T03:47:37.478Z,11.96
2017-10-03T03:50:14.106Z,11.92
2017-10-03T03:52:46.395Z,12.00
2017-10-03T03:55:26.818Z,11.93
2017-10-03T03:57:58.607Z,11.94
2017-10-03T04:00:29.710Z,11.92
2017-10-03T04:03:00.852Z,11.93
2017-10-03T04:05:31.660Z,11.91
2017-10-03T04:08:06.714Z,11.95
2017-10-03T04:10:40.519Z,11.90
2017-10-03T04:13:11.777Z,11.89
2017-10-03T04:15:43.185Z,11.89
2017-10-03T04:18:14.714Z,11.91
2017-10-03T04:20:45.924Z,11.84
2017-10-03T04:23:17.033Z,11.89
2017-10-03T04:25:47.941Z,11.87
2017-10-03T04:28:19.645Z,11.79
2017-10-03T04:30:50.736Z,11.81
2017-10-03T04:33:21.672Z,11.81
2017-10-03T04:35:57.563Z,11.77
2017-10-03T04:38:28.652Z,11.76
2017-10-03T04:41:01.059Z,11.70
2017-10-03T04:43:31.934Z,11.72
2017-10-03T04:46:03.072Z,11.73
2017-10-03T04:48:34.572Z,11.71
2017-10-03T04:51:06.286Z,11.68
2017-10-03T04:53:37.477Z,11.66
2017-10-03T04:56:09.028Z,11.68
2017-10-03T04:58:40.090Z,11.68
2017-10-03T05:01:11.245Z,11.60
2017-10-03T05:03:42.776Z,11.54
2017-10-03T05:06:14.233Z,11.56
2017-10-03T05:08:45.331Z,11.50
2017-10-03T05:11:16.795Z,11.53
2017-10-03T05:13:48.293Z,11.52
2017-10-03T05:16:21.814Z,11.51
2017-10-03T05:18:53.181Z,11.51
2017-10-03T05:21:25.021Z,11.54
2017-10-03T05:23:58.260Z,11.56
2017-10-03T05:26:29.167Z,11.49
2017-10-03T05:29:02.206Z,11.43
2017-10-03T05:31:33.446Z,11.47
2017-10-03T05:34:05.766Z,11.54
2017-10-03T05:36:36.887Z,11.36
2017-10-03T05:39:08.742Z,11.40
2017-10-03T05:41:40.034Z,11.36
2017-10-03T05:44:20.034Z,11.38
2017-10-03T05:46:52.213Z,11.30
2017-10-03T05:49:23.923Z,11.37
2017-10-03T05:51:55.081Z,11.34
2017-10-03T05:54:27.553Z,11.33
2017-10-03T05:57:00.254Z,11.40
2017-10-03T05:59:31.298Z,11.37
2017-10-03T06:02:03.988Z,11.42
2017-10-03T06:04:35.580Z,11.39
2017-10-03T06:07:07.129Z,11.47
2017-10-03T06:09:39.652Z,11.47
2017-10-03T06:12:11.053Z,11.44
2017-10-03T06:14:42.248Z,11.39
2017-10-03T06:17:13.687Z,11.46
2017-10-03T06:19:44.945Z,11.39
2017-10-03T06:22:16.257Z,11.41
2017-10-03T06:24:49.999Z,11.38
2017-10-03T06:27:21.523Z,11.41
2017-10-03T06:29:53.983Z,11.45
2017-10-03T06:32:26.973Z,11.40
2017-10-03T06:35:00.441Z,11.39
2017-10-03T06:37:32.038Z,11.50
2017-10-03T06:40:07.451Z,11.43
2017-10-03T06:42:39.041Z,11.47
2017-10-03T06:45:10.286Z,11.41
2017-10-03T06:47:42.107Z,11.45
2017-10-03T06:50:15.699Z,11.46
2017-10-03T06:52:49.615Z,11.42
2017-10-03T06:55:20.319Z,11.39
2017-10-03T06:57:51.761Z,11.46
2017-10-03T07:00:23.358Z,11.47
2017-10-03T07:02:54.511Z,11.48
2017-10-03T07:05:25.194Z,11.45
2017-10-03T07:07:56.582Z,11.50
2017-10-03T07:10:27.267Z,11.59
2017-10-03T07:13:02.203Z,11.57
2017-10-03T07:15:34.410Z,11.60
2017-10-03T07:18:08.501Z,11.54
2017-10-03T07:20:41.942Z,11.60
2017-10-03T07:23:23.150Z,11.65
2017-10-03T07:25:57.309Z,11.64
2017-10-03T07:28:28.704Z,11.59
2017-10-03T07:31:04.049Z,11.61
2017-10-03T07:33:35.240Z,11.52
2017-10-03T07:36:08.822Z,11.57
2017-10-03T07:38:40.498Z,11.58
2017-10-03T07:41:15.131Z,11.62
2017-10-03T07:43:50.112Z,11.59
2017-10-03T07:46:23.566Z,11.68
2017-10-03T07:48:55.937Z,11.74
2017-10-03T07:51:26.856Z,11.71
2017-10-03T07:53:57.782Z,11.75
2017-10-03T07:56:29.122Z,11.73
2017-10-03T07:59:00.457Z,11.78
2017-10-03T08:01:32.190Z,11.83
2017-10-03T08:04:05.927Z,11.86
2017-10-03T08:06:36.936Z,11.83
2017-10-03T08:09:09.814Z,11.89
2017-10-03T08:11:42.472Z,11.85
2017-10-03T08:14:14.103Z,11.88
2017-10-03T08:16:47.843Z,11.92
2017-10-03T08:19:20.855Z,12.04
2017-10-03T08:21:53.330Z,12.12
2017-10-03T08:24:24.821Z,12.21
2017-10-03T08:26:56.360Z,12.25
2017-10-03T08:29:40.209Z,12.27
2017-10-03T08:32:13.438Z,12.46
2017-10-03T08:34:44.363Z,12.50
2017-10-03T08:37:20.951Z,12.57
2017-10-03T08:39:52.955Z,12.72
2017-10-03T08:42:24.523Z,12.64
2017-10-03T08:44:57.205Z,12.73
2017-10-03T08:47:43.024Z,12.81
2017-10-03T08:50:16.522Z,12.80
2017-10-03T08:52:48.419Z,12.73
2017-10-03T08:55:25.758Z,12.74
2017-10-03T08:57:57.232Z,12.88
2017-10-03T09:00:28.080Z,12.93
2017-10-03T09:02:59.429Z,13.00
2017-10-03T09:05:30.438Z,12.97
2017-10-03T09:08:04.493Z,13.08
2017-10-03T09:10:35.918Z,13.23
2017-10-03T09:13:07.828Z,13.33
2017-10-03T09:15:40.941Z,13.48
2017-10-03T09:18:14.908Z,13.53
2017-10-03T09:20:46.514Z,13.39
2017-10-03T09:23:17.441Z,13.31
2017-10-03T09:28:25.600Z,13.11
2017-10-03T09:30:57.273Z,13.09
2017-10-03T09:33:32.876Z,13.21
2017-10-03T09:36:06.649Z,13.16
2017-10-03T09:38:37.620Z,13.19
2017-10-03T09:41:09.053Z,13.18
2017-10-03T09:43:40.801Z,13.17
2017-10-03T09:46:16.604Z,13.40
2017-10-03T09:48:47.471Z,13.77
2017-10-03T09:51:18.655Z,13.67
2017-10-03T09:53:49.827Z,13.77
2017-10-03T09:56:24.700Z,13.88
2017-10-03T09:58:56.274Z,14.23
2017-10-03T10:01:29.749Z,14.19
2017-10-03T10:04:07.580Z,14.32
2017-10-03T10:06:41.229Z,14.45
2017-10-03T10:09:14.889Z,14.30
2017-10-03T10:11:45.866Z,14.12
2017-10-03T10:14:19.610Z,14.03
2017-10-03T10:16:51.175Z,14.08
2017-10-03T10:19:23.373Z,13.79
2017-10-03T10:22:01.079Z,13.79
2017-10-03T10:24:32.093Z,13.86
2017-10-03T10:27:06.529Z,13.70
2017-10-03T10:29:38.551Z,13.85
2017-10-03T10:32:11.092Z,13.57
2017-10-03T10:34:42.488Z,13.72
2017-10-03T10:37:17.170Z,13.74
2017-10-03T10:39:48.513Z,13.87
2017-10-03T10:42:21.593Z,13.66
2017-10-03T10:44:52.759Z,13.92
2017-10-03T10:47:32.497Z,13.90
2017-10-03T10:53:17.888Z,14.19
2017-10-03T10:55:49.031Z,14.29
2017-10-03T10:58:23.248Z,14.38
2017-10-03T11:00:56.116Z,14.62
2017-10-03T11:03:27.188Z,14.70
2017-10-03T11:05:59.092Z,14.46
2017-10-03T11:08:30.393Z,14.67
2017-10-03T11:11:01.158Z,15.08
2017-10-03T11:13:33.813Z,15.25
2017-10-03T11:16:05.142Z,14.98
2017-10-03T11:18:36.626Z,14.94
2017-10-03T11:21:08.066Z,14.86
2017-10-03T11:24:48.125Z,14.85
2017-10-03T11:27:21.436Z,14.96
2017-10-03T11:29:53.360Z,14.70
2017-10-03T11:32:25.069Z,14.64
2017-10-03T11:34:56.498Z,14.58
2017-10-03T11:37:27.650Z,14.58
2017-10-03T11:40:01.249Z,14.50
2017-10-03T11:42:33.291Z,14.65
2017-10-03T11:45:06.241Z,14.74
2017-10-03T11:47:38.859Z,14.73
2017-10-03T11:50:10.061Z,14.81
2017-10-03T11:52:43.137Z,14.68
2017-10-03T11:55:17.144Z,14.69
2017-10-03T11:57:51.678Z,14.62
2017-10-03T12:00:27.203Z,14.59
2017-10-03T12:02:58.320Z,14.46
2017-10-03T12:05:29.158Z,14.56
2017-10-03T12:08:00.637Z,14.51
2017-10-03T12:10:34.375Z,14.43
2017-10-03T12:13:08.157Z,14.36
2017-10-03T12:15:39.585Z,14.63
2017-10-03T12:18:11.407Z,14.80
2017-10-03T12:20:42.950Z,14.81
2017-10-03T12:23:13.744Z,15.03
2017-10-03T12:25:45.043Z,15.03
2017-10-03T12:28:16.517Z,14.85
2017-10-03T12:30:48.929Z,14.63
2017-10-03T12:33:21.979Z,14.68
2017-10-03T12:35:55.166Z,15.09
2017-10-03T12:38:30.680Z,15.33
2017-10-03T12:41:03.261Z,15.49
2017-10-03T12:43:34.813Z,15.25
2017-10-03T12:46:06.174Z,15.26
2017-10-03T12:48:37.917Z,15.47
2017-10-03T12:51:11.487Z,15.74
2017-10-03T12:56:20.489Z,15.87
2017-10-03T12:58:52.686Z,16.14
2017-10-03T13:01:27.344Z,16.22
2017-10-03T13:04:07.836Z,16.28
2017-10-03T13:06:41.986Z,16.42
2017-10-03T13:09:13.826Z,16.22
2017-10-03T13:11:45.824Z,16.11
2017-10-03T13:14:18.032Z,16.06
2017-10-03T13:16:50.102Z,15.62
2017-10-03T13:19:26.078Z,15.64
2017-10-03T13:21:59.015Z,15.59
2017-10-03T13:25:33.273Z,15.57
2017-10-03T13:28:04.011Z,15.49
2017-10-03T13:30:34.869Z,15.55
2017-10-03T13:33:05.984Z,15.63
2017-10-03T13:35:36.988Z,15.38
2017-10-03T13:38:09.540Z,15.34
2017-10-03T13:40:41.235Z,15.52
2017-10-03T13:43:12.983Z,15.73
2017-10-03T13:45:48.655Z,15.90
2017-10-03T13:48:19.553Z,16.04
2017-10-03T13:50:51.678Z,16.22
2017-10-03T13:53:25.576Z,16.19
2017-10-03T13:55:56.632Z,15.89
2017-10-03T13:58:27.353Z,15.70
2017-10-03T14:00:58.973Z,15.68
2017-10-03T14:03:33.989Z,15.64
2017-10-03T14:06:10.836Z,15.69
2017-10-03T14:08:51.829Z,15.83
2017-10-03T14:11:34.713Z,15.95
2017-10-03T14:14:11.280Z,15.82
2017-10-03T14:16:43.859Z,15.59
2017-10-03T14:19:19.798Z,15.52
2017-10-03T14:21:54.347Z,15.61
2017-10-03T14:24:33.754Z,15.66
2017-10-03T14:27:17.202Z,15.57
2017-10-03T14:29:51.811Z,15.79
2017-10-03T14:32:24.290Z,15.81
2017-10-03T14:35:07.422Z,15.62
2017-10-03T14:37:51.688Z,15.57
2017-10-03T14:40:34.546Z,15.54
2017-10-03T14:43:29.141Z,15.72
2017-10-03T14:48:56.755Z,16.01
2017-10-03T14:51:36.380Z,15.94
2017-10-03T14:54:18.789Z,15.91
2017-10-03T14:56:56.008Z,15.88
2017-10-03T14:59:38.130Z,16.08
2017-10-03T15:02:25.086Z,15.89
2017-10-03T15:04:59.237Z,15.80
2017-10-03T15:07:38.275Z,15.56
2017-10-03T15:10:25.225Z,15.46
2017-10-03T15:15:53.523Z,15.51
2017-10-03T15:18:36.900Z,15.41
2017-10-03T15:21:33.234Z,15.42
2017-10-03T15:24:14.711Z,15.27
2017-10-03T15:26:47.961Z,15.23
2017-10-03T15:29:20.718Z,15.13
2017-10-03T15:31:51.866Z,14.91
2017-10-03T15:34:27.186Z,13.14
2017-10-03T15:36:59.239Z,12.45
2017-10-03T15:39:31.265Z,12.38
2017-10-03T15:42:06.498Z,12.85
2017-10-03T15:44:39.051Z,12.98
2017-10-03T15:47:14.543Z,12.97
2017-10-03T15:49:50.702Z,13.05
2017-10-03T15:52:23.367Z,13.09
2017-10-03T15:55:01.604Z,13.38
2017-10-03T15:57:33.346Z,13.14
2017-10-03T16:00:16.182Z,13.46
2017-10-03T16:02:49.285Z,13.35
2017-10-03T16:05:23.145Z,13.34
2017-10-03T16:07:54.862Z,13.35
2017-10-03T16:10:29.010Z,13.30
2017-10-03T16:13:01.052Z,13.35
2017-10-03T16:15:32.333Z,13.41
2017-10-03T16:18:05.941Z,13.38
2017-10-03T16:20:40.852Z,13.25
2017-10-03T16:23:12.166Z,13.25
2017-10-03T16:25:45.691Z,13.22
2017-10-03T16:28:20.419Z,13.17
2017-10-03T16:30:53.671Z,13.13
2017-10-03T16:33:28.940Z,11.99
2017-10-03T16:36:03.245Z,12.38
2017-10-03T16:38:36.838Z,12.31
2017-10-03T16:41:10.439Z,12.39
2017-10-03T16:43:42.577Z,12.32
2017-10-03T16:46:17.732Z,12.31
2017-10-03T16:48:53.082Z,12.47
2017-10-03T16:51:26.557Z,12.47
2017-10-03T16:53:59.573Z,12.37
2017-10-03T16:56:33.024Z,12.39
2017-10-03T16:59:13.878Z,12.41
2017-10-03T17:01:46.984Z,12.43
2017-10-03T17:04:25.824Z,12.39
2017-10-03T17:06:57.818Z,12.39
2017-10-03T17:09:28.986Z,12.48
2017-10-03T17:12:00.499Z,12.43
2017-10-03T17:14:38.038Z,12.43
2017-10-03T17:17:12.907Z,12.48
2017-10-03T17:19:48.828Z,12.52
2017-10-03T17:22:24.802Z,12.39
2017-10-03T17:24:58.697Z,12.42
2017-10-03T17:27:33.939Z,12.41
2017-10-03T17:30:11.144Z,12.45
2017-10-03T17:32:46.819Z,12.47
2017-10-03T17:35:21.885Z,12.47
2017-10-03T17:38:01.821Z,12.47
2017-10-03T17:40:34.056Z,12.45
2017-10-03T17:43:05.698Z,12.44
2017-10-03T17:45:37.739Z,12.34
2017-10-03T17:48:16.272Z,12.37
2017-10-03T17:50:52.476Z,12.37
2017-10-03T17:53:35.528Z,12.32
2017-10-03T17:56:14.762Z,12.31
2017-10-03T17:58:53.345Z,12.19
2017-10-03T18:01:33.729Z,12.15
2017-10-03T18:04:10.041Z,12.12
2017-10-03T18:06:50.843Z,12.15
2017-10-03T18:12:13.568Z,12.10
2017-10-03T18:14:52.929Z,12.09
2017-10-03T18:17:35.374Z,12.07
2017-10-03T18:20:15.997Z,12.04
2017-10-03T18:22:57.036Z,11.85
2017-10-03T18:28:26.209Z,11.80
2017-10-03T18:31:13.167Z,11.82
2017-10-03T18:33:54.304Z,11.79
2017-10-03T18:36:35.243Z,11.74
2017-10-03T18:39:16.014Z,11.71
2017-10-03T18:41:53.723Z,11.69
2017-10-03T18:44:31.694Z,11.59
2017-10-03T18:49:58.584Z,11.58
2017-10-03T18:55:29.199Z,11.59
2017-10-03T18:58:14.335Z,11.56
2017-10-03T19:00:53.458Z,11.51
2017-10-03T19:06:23.027Z,11.51
2017-10-03T19:09:06.119Z,11.54
2017-10-03T19:11:49.154Z,11.55
2017-10-03T19:14:39.307Z,11.52
2017-10-03T19:17:18.264Z,11.48
2017-10-03T19:19:57.040Z,11.49
2017-10-03T19:22:33.899Z,11.36
2017-10-03T19:25:16.605Z,11.38
2017-10-03T19:28:14.878Z,11.42
2017-10-03T19:31:02.185Z,11.44
2017-10-03T19:33:38.104Z,11.44
2017-10-03T19:36:14.877Z,11.45
2017-10-03T19:39:00.701Z,11.55
2017-10-03T19:41:45.098Z,11.55
2017-10-03T19:44:23.672Z,11.52
2017-10-03T19:47:03.148Z,11.58
2017-10-03T19:52:39.400Z,11.49
2017-10-03T19:55:16.578Z,11.45
2017-10-03T19:57:54.404Z,11.50
2017-10-03T20:00:29.568Z,11.34
2017-10-03T20:03:05.005Z,11.37
2017-10-03T20:05:45.787Z,11.39
2017-10-03T20:08:22.301Z,11.37
2017-10-03T20:11:00.301Z,11.31
2017-10-03T20:13:39.540Z,11.31
2017-10-03T20:16:17.454Z,11.31
2017-10-03T20:21:33.234Z,11.29
2017-10-03T20:24:10.782Z,11.27
2017-10-03T20:26:56.092Z,11.30
2017-10-03T20:29:35.581Z,11.31
2017-10-03T20:32:11.670Z,11.29
2017-10-03T20:34:52.757Z,11.32
2017-10-03T20:37:30.914Z,11.34
2017-10-03T20:40:02.724Z,11.38
2017-10-03T20:42:34.963Z,11.32
2017-10-03T20:45:16.401Z,11.36
2017-10-03T20:50:29.033Z,11.30
2017-10-03T20:55:50.310Z,11.43
2017-10-03T20:58:30.751Z,11.41
2017-10-03T21:01:04.960Z,11.33
2017-10-03T21:03:40.747Z,11.31
2017-10-03T21:06:18.375Z,11.24
2017-10-03T21:08:54.708Z,11.25
2017-10-03T21:11:38.650Z,11.27
2017-10-03T21:14:19.150Z,11.28
2017-10-03T21:17:01.916Z,11.32
2017-10-03T21:19:39.288Z,11.28
2017-10-03T21:22:19.690Z,11.33
2017-10-03T21:24:59.078Z,11.35
2017-10-03T21:27:43.142Z,11.29
2017-10-03T21:30:23.589Z,11.29
2017-10-03T21:33:01.737Z,11.28
2017-10-03T21:35:41.121Z,11.35
2017-10-03T21:38:16.113Z,11.32
2017-10-03T21:41:00.275Z,11.31
2017-10-03T21:43:40.219Z,11.30
2017-10-03T21:46:21.025Z,11.28
2017-10-03T21:51:58.819Z,11.28
2017-10-03T21:54:43.507Z,11.23
2017-10-03T22:00:36.814Z,11.25
2017-10-03T22:06:17.172Z,11.22
2017-10-03T22:09:00.619Z,11.23
2017-10-03T22:11:43.306Z,11.24
2017-10-03T22:14:25.642Z,11.28
2017-10-03T22:17:06.225Z,11.25
2017-10-03T22:19:47.800Z,11.23
2017-10-03T22:22:25.207Z,11.23
2017-10-03T22:25:12.061Z,11.19
2017-10-03T22:27:54.869Z,11.25
2017-10-03T22:33:29.120Z,11.21
2017-10-03T22:36:21.929Z,11.19
2017-10-03T22:39:08.759Z,11.18
2017-10-03T22:44:38.061Z,11.04
2017-10-03T22:50:25.826Z,11.10
2017-10-03T22:53:04.172Z,11.05
2017-10-03T22:55:45.376Z,11.04
2017-10-03T22:58:39.758Z,11.01
2017-10-03T23:01:14.216Z,10.94
2017-10-03T23:03:47.134Z,10.95
2017-10-03T23:06:26.183Z,10.95
2017-10-03T23:09:01.165Z,10.90
2017-10-03T23:11:36.478Z,10.95
2017-10-03T23:14:12.181Z,10.91
2017-10-03T23:16:45.090Z,10.89
2017-10-03T23:19:16.847Z,10.91
2017-10-03T23:21:52.276Z,10.92
2017-10-03T23:27:05.737Z,10.94
2017-10-03T23:29:37.596Z,10.94
2017-10-03T23:32:08.224Z,10.96
2017-10-03T23:34:41.346Z,11.00
2017-10-03T23:37:12.081Z,11.04
2017-10-03T23:39:42.958Z,11.01
2017-10-03T23:42:14.806Z,10.99
2017-10-03T23:44:45.558Z,11.00
2017-10-03T23:47:16.329Z,10.99
2017-10-03T23:49:49.207Z,10.87
2017-10-03T23:52:20.873Z,10.88
2017-10-03T23:54:53.830Z,10.85
2017-10-03T23:57:25.056Z,10.79
